Terminal Aerodrome Forecast
Issued by NWS

Home | Current Version | Previous Version | Text Only | Print | Product List | Glossary On
Versions: 1 2 3 4 5 6 7 8 9 10 11 12 13 14 15 16 17 18 19 20 21 22 23 24 25 26 27 28 29 30
000
FTUS46 KPQR 031228 AAA
TAFONP
TAF AMD
KONP 031228Z 0312/0412 08006KT 4SM BR SCT001
      TEMPO 0312/0315 3/4SM BR BKN001
     FM031600 07005KT P6SM SCT004 SCT250
     FM032100 36008KT P6SM SCT250
     FM040300 VRB03KT P6SM SCT250=

USA.gov is the U.S. government's official web portal to all federal, state and local government web resources and services.